createdAt,value
2023-01-12T00:02:20.264Z,4.93
2023-01-12T00:04:50.456Z,4.82
2023-01-12T00:07:20.550Z,4.75
2023-01-12T00:09:50.510Z,4.70
2023-01-12T00:12:20.391Z,4.65
2023-01-12T00:14:48.766Z,4.64
2023-01-12T00:17:19.665Z,4.57
2023-01-12T00:19:48.163Z,4.56
2023-01-12T00:22:19.352Z,4.48
2023-01-12T00:24:50.055Z,4.46
2023-01-12T00:27:21.862Z,4.41
2023-01-12T00:29:50.294Z,4.37
2023-01-12T00:32:23.191Z,4.33
2023-01-12T00:34:51.587Z,4.28
2023-01-12T00:37:20.932Z,4.24
2023-01-12T00:40:01.366Z,4.20
2023-01-12T00:42:50.924Z,4.11
2023-01-12T00:45:30.279Z,4.06
2023-01-12T00:47:58.673Z,4.07
2023-01-12T00:50:27.116Z,4.05
2023-01-12T00:52:58.646Z,3.99
2023-01-12T00:55:27.001Z,3.98
2023-01-12T00:57:58.548Z,3.88
2023-01-12T01:00:28.469Z,3.93
2023-01-12T01:02:56.854Z,3.90
2023-01-12T01:05:25.145Z,3.88
2023-01-12T01:07:53.559Z,3.86
2023-01-12T01:10:22.512Z,3.81
2023-01-12T01:12:50.776Z,3.85
2023-01-12T01:15:20.723Z,3.86
2023-01-12T01:17:49.027Z,3.88
2023-01-12T01:20:25.344Z,3.97
2023-01-12T01:22:53.737Z,4.04
2023-01-12T01:25:22.205Z,4.07
2023-01-12T01:27:50.456Z,4.11
2023-01-12T01:30:21.488Z,4.18
2023-01-12T01:32:49.900Z,4.15
2023-01-12T01:35:18.295Z,4.11
2023-01-12T01:37:46.561Z,4.11
2023-01-12T01:40:15.863Z,4.09
2023-01-12T01:42:45.728Z,4.08
2023-01-12T01:45:16.947Z,4.07
2023-01-12T01:47:51.838Z,4.05
2023-01-12T01:50:25.237Z,4.07
2023-01-12T01:52:57.375Z,4.06
2023-01-12T01:55:34.119Z,4.08
2023-01-12T01:58:14.067Z,4.08
2023-01-12T02:00:44.741Z,4.09
2023-01-12T02:03:23.426Z,4.11
2023-01-12T02:05:52.450Z,4.11
2023-01-12T02:08:28.213Z,4.11
2023-01-12T02:10:58.950Z,4.08
2023-01-12T02:13:48.191Z,4.08
2023-01-12T02:16:25.926Z,4.07
2023-01-12T02:19:19.344Z,4.08
2023-01-12T02:22:09.909Z,4.09
2023-01-12T02:25:11.104Z,4.09
2023-01-12T02:28:02.367Z,4.04
2023-01-12T02:30:52.454Z,4.04
2023-01-12T02:33:36.296Z,3.97
2023-01-12T02:36:13.012Z,3.99
2023-01-12T02:38:49.340Z,3.93
2023-01-12T02:41:42.224Z,3.97
2023-01-12T02:44:26.365Z,3.95
2023-01-12T02:46:58.871Z,4.03
2023-01-12T02:49:33.837Z,4.02
2023-01-12T02:52:09.497Z,4.00
2023-01-12T02:54:40.070Z,4.01
2023-01-12T02:57:12.233Z,3.98
2023-01-12T02:59:43.364Z,3.99
2023-01-12T03:02:15.162Z,4.00
2023-01-12T03:04:45.228Z,3.98
2023-01-12T03:07:39.828Z,3.99
2023-01-12T03:10:26.479Z,4.01
2023-01-12T03:12:57.062Z,4.01
2023-01-12T03:15:26.525Z,4.03
2023-01-12T03:18:00.179Z,4.07
2023-01-12T03:20:34.345Z,4.09
2023-01-12T03:23:05.184Z,4.10
2023-01-12T03:25:36.024Z,4.12
2023-01-12T03:28:08.196Z,4.11
2023-01-12T03:30:40.140Z,4.10
2023-01-12T03:33:10.533Z,4.09
2023-01-12T03:35:49.005Z,4.09
2023-01-12T03:38:25.784Z,4.08
2023-01-12T03:41:05.190Z,4.06
2023-01-12T03:43:40.304Z,4.05
2023-01-12T03:46:18.156Z,4.05
2023-01-12T03:48:51.421Z,4.00
2023-01-12T03:51:25.596Z,4.04
2023-01-12T03:53:55.374Z,4.04
2023-01-12T03:56:28.414Z,4.07
2023-01-12T03:58:57.070Z,4.09
2023-01-12T04:01:25.684Z,4.16
2023-01-12T04:03:54.016Z,4.15
2023-01-12T04:06:24.483Z,4.17
2023-01-12T04:08:52.942Z,4.12
2023-01-12T04:11:38.939Z,4.20
2023-01-12T04:14:07.973Z,4.21
2023-01-12T04:16:36.311Z,4.21
2023-01-12T04:19:04.734Z,4.24
2023-01-12T04:21:51.950Z,4.22
2023-01-12T04:24:20.444Z,4.16
2023-01-12T04:26:48.975Z,4.18
2023-01-12T04:29:17.259Z,4.22
2023-01-12T04:31:47.963Z,4.19
2023-01-12T04:34:16.602Z,4.21
2023-01-12T04:36:55.561Z,4.22
2023-01-12T04:39:25.587Z,4.25
2023-01-12T04:41:54.100Z,4.20
2023-01-12T04:44:25.958Z,4.27
2023-01-12T04:46:54.394Z,4.30
2023-01-12T04:49:22.874Z,4.34
2023-01-12T04:51:51.515Z,4.34
2023-01-12T04:54:22.433Z,4.37
2023-01-12T04:56:50.882Z,4.37
2023-01-12T04:59:19.531Z,4.45
2023-01-12T05:01:47.986Z,4.40
2023-01-12T05:04:16.645Z,4.46
2023-01-12T05:06:45.265Z,4.41
2023-01-12T05:09:30.934Z,4.42
2023-01-12T05:12:03.151Z,4.40
2023-01-12T05:14:31.920Z,4.43
2023-01-12T05:17:00.798Z,4.44
2023-01-12T05:19:32.118Z,4.37
2023-01-12T05:22:00.627Z,4.41
2023-01-12T05:24:49.166Z,4.40
2023-01-12T05:27:22.080Z,4.40
2023-01-12T05:29:50.898Z,4.38
2023-01-12T05:32:19.640Z,4.35
2023-01-12T05:34:48.189Z,4.35
2023-01-12T05:37:16.723Z,4.39
2023-01-12T05:39:48.338Z,4.43
2023-01-12T05:42:40.108Z,4.39
2023-01-12T05:45:11.694Z,4.46
2023-01-12T05:47:40.137Z,4.48
2023-01-12T05:50:11.854Z,4.52
2023-01-12T05:52:40.633Z,4.54
2023-01-12T05:55:09.572Z,4.53
2023-01-12T05:57:40.025Z,4.58
2023-01-12T06:00:09.957Z,4.61
2023-01-12T06:02:38.522Z,4.62
2023-01-12T06:05:11.211Z,4.63
2023-01-12T06:07:41.528Z,4.70
2023-01-12T06:10:11.388Z,4.72
2023-01-12T06:12:58.835Z,4.75
2023-01-12T06:15:27.900Z,4.83
2023-01-12T06:17:58.179Z,4.81
2023-01-12T06:20:26.670Z,4.88
2023-01-12T06:22:55.746Z,4.89
2023-01-12T06:25:24.232Z,4.89
2023-01-12T06:28:11.416Z,4.91
2023-01-12T06:30:40.001Z,4.95
2023-01-12T06:33:11.643Z,4.90
2023-01-12T06:35:42.103Z,4.96
2023-01-12T06:38:10.674Z,4.98
2023-01-12T06:40:39.164Z,4.99
2023-01-12T06:43:16.379Z,4.95
2023-01-12T06:45:44.911Z,5.01
2023-01-12T06:48:13.661Z,5.01
2023-01-12T06:50:42.395Z,5.06
2023-01-12T06:53:11.970Z,5.09
2023-01-12T06:55:41.968Z,5.05
2023-01-12T06:58:12.115Z,5.07
2023-01-12T07:00:40.884Z,5.04
2023-01-12T07:03:17.041Z,5.08
2023-01-12T07:05:45.559Z,5.16
2023-01-12T07:08:19.598Z,5.13
2023-01-12T07:10:48.229Z,5.15
2023-01-12T07:13:18.196Z,5.19
2023-01-12T07:15:49.822Z,5.22
2023-01-12T07:18:18.337Z,5.21
2023-01-12T07:20:48.924Z,5.23
2023-01-12T07:23:17.436Z,5.22
2023-01-12T07:25:46.072Z,5.21
2023-01-12T07:28:14.487Z,5.26
2023-01-12T07:30:44.667Z,5.26
2023-01-12T07:33:15.757Z,5.32
2023-01-12T07:35:45.854Z,5.26
2023-01-12T07:38:14.516Z,5.27
2023-01-12T07:40:43.272Z,5.29
2023-01-12T07:43:15.189Z,5.29
2023-01-12T07:45:45.228Z,5.25
2023-01-12T07:48:17.154Z,5.28
2023-01-12T07:50:46.006Z,5.29
2023-01-12T07:53:17.975Z,5.29
2023-01-12T07:55:46.697Z,5.27
2023-01-12T07:58:15.174Z,5.23
2023-01-12T08:00:45.194Z,5.27
2023-01-12T08:03:15.239Z,5.30
2023-01-12T08:05:43.855Z,5.28
2023-01-12T08:08:12.510Z,5.29
2023-01-12T08:10:41.236Z,5.27
2023-01-12T08:13:10.601Z,5.34
2023-01-12T08:15:43.569Z,5.34
2023-01-12T08:18:19.527Z,5.45
2023-01-12T08:20:49.232Z,5.47
2023-01-12T08:23:22.889Z,5.54
2023-01-12T08:25:57.304Z,5.57
2023-01-12T08:28:28.965Z,5.58
2023-01-12T08:30:57.557Z,5.61
2023-01-12T08:33:28.043Z,5.59
2023-01-12T08:35:56.604Z,5.67
2023-01-12T08:38:28.235Z,5.72
2023-01-12T08:41:14.822Z,5.74
2023-01-12T08:44:05.783Z,5.80
2023-01-12T08:46:36.443Z,5.83
2023-01-12T08:49:11.581Z,5.87
2023-01-12T08:51:45.679Z,5.92
2023-01-12T08:54:16.849Z,5.99
2023-01-12T08:56:45.683Z,5.96
2023-01-12T08:59:14.241Z,6.00
2023-01-12T09:01:43.051Z,5.97
2023-01-12T09:04:21.490Z,6.01
2023-01-12T09:06:50.196Z,6.01
2023-01-12T09:09:20.553Z,5.98
2023-01-12T09:11:50.938Z,5.98
2023-01-12T09:14:19.799Z,5.98
2023-01-12T09:16:48.528Z,6.00
2023-01-12T09:19:19.001Z,6.00
2023-01-12T09:21:47.530Z,6.02
2023-01-12T09:24:16.935Z,6.06
2023-01-12T09:26:47.992Z,6.15
2023-01-12T09:29:19.659Z,6.16
2023-01-12T09:31:48.346Z,6.25
2023-01-12T09:34:18.549Z,6.34
2023-01-12T09:36:47.082Z,6.48
2023-01-12T09:39:27.321Z,6.59
2023-01-12T09:42:17.268Z,6.63
2023-01-12T09:45:06.640Z,6.63
2023-01-12T09:47:39.950Z,6.63
2023-01-12T09:50:13.497Z,6.66
2023-01-12T09:52:47.171Z,6.64
2023-01-12T09:55:19.673Z,6.69
2023-01-12T09:58:14.296Z,6.68
2023-01-12T10:00:42.701Z,6.70
2023-01-12T10:03:26.187Z,6.69
2023-01-12T10:05:58.761Z,6.70
2023-01-12T10:08:34.133Z,6.64
2023-01-12T10:11:11.976Z,6.65
2023-01-12T10:14:07.259Z,6.66
2023-01-12T10:16:47.159Z,6.67
2023-01-12T10:19:24.996Z,6.68
2023-01-12T10:21:55.556Z,6.67
2023-01-12T10:24:26.019Z,6.67
2023-01-12T10:27:01.689Z,6.72
2023-01-12T10:29:33.842Z,6.75
2023-01-12T10:32:02.422Z,6.72
2023-01-12T10:34:50.424Z,6.79
2023-01-12T10:37:20.541Z,6.78
2023-01-12T10:39:53.608Z,6.82
2023-01-12T10:42:42.657Z,6.84
2023-01-12T10:45:20.973Z,6.92
2023-01-12T10:47:53.661Z,6.96
2023-01-12T10:50:26.725Z,7.01
2023-01-12T10:53:12.628Z,6.98
2023-01-12T10:55:43.003Z,7.01
2023-01-12T10:58:24.137Z,6.99
2023-01-12T11:00:54.335Z,6.97
2023-01-12T11:03:34.556Z,7.00
2023-01-12T11:06:28.276Z,6.99
2023-01-12T11:09:16.677Z,6.99
2023-01-12T11:11:45.319Z,7.01
2023-01-12T11:14:26.819Z,6.96
2023-01-12T11:16:55.535Z,6.99
2023-01-12T11:19:28.446Z,6.97
2023-01-12T11:22:07.832Z,7.04
2023-01-12T11:24:44.911Z,7.04
2023-01-12T11:27:19.414Z,7.02
2023-01-12T11:29:57.659Z,7.02
2023-01-12T11:32:34.005Z,7.05
2023-01-12T11:35:15.888Z,7.06
2023-01-12T11:37:45.400Z,7.12
2023-01-12T11:40:27.616Z,7.13
2023-01-12T11:43:33.109Z,7.10
2023-01-12T11:46:10.048Z,7.14
2023-01-12T11:48:44.909Z,7.15
2023-01-12T11:51:14.891Z,7.18
2023-01-12T11:53:44.456Z,7.11
2023-01-12T11:56:47.359Z,7.13
2023-01-12T11:59:24.267Z,7.12
2023-01-12T12:02:03.613Z,7.10
2023-01-12T12:04:48.624Z,7.09
2023-01-12T12:07:29.754Z,7.11
2023-01-12T12:10:08.930Z,7.11
2023-01-12T12:13:03.587Z,7.07
2023-01-12T12:15:40.631Z,7.04
2023-01-12T12:18:18.395Z,6.97
2023-01-12T12:20:59.487Z,7.01
2023-01-12T12:23:37.140Z,7.00
2023-01-12T12:26:14.578Z,7.00
2023-01-12T12:28:57.102Z,6.93
2023-01-12T12:31:39.253Z,6.93
2023-01-12T12:34:29.789Z,6.98
2023-01-12T12:37:04.452Z,6.96
2023-01-12T12:39:46.858Z,6.96
2023-01-12T12:42:49.264Z,6.97
2023-01-12T12:45:30.897Z,6.95
2023-01-12T12:48:08.093Z,6.94
2023-01-12T12:50:41.987Z,6.94
2023-01-12T12:53:19.084Z,6.92
2023-01-12T12:55:48.108Z,6.93
2023-01-12T12:58:40.209Z,6.91
2023-01-12T13:01:45.255Z,6.87
2023-01-12T13:04:15.974Z,6.81
2023-01-12T13:06:48.227Z,6.80
2023-01-12T13:09:37.485Z,6.79
2023-01-12T13:12:34.710Z,6.81
2023-01-12T13:15:32.677Z,6.81
2023-01-12T13:18:01.436Z,6.78
2023-01-12T13:21:03.564Z,6.76
2023-01-12T13:23:52.744Z,6.78
2023-01-12T13:26:39.589Z,6.80
2023-01-12T13:29:40.091Z,6.81
2023-01-12T13:32:44.010Z,6.82
2023-01-12T13:35:46.834Z,6.84
2023-01-12T13:38:21.805Z,6.84
2023-01-12T13:40:55.456Z,6.84
2023-01-12T13:43:28.998Z,6.82
2023-01-12T13:46:06.542Z,6.80
2023-01-12T13:48:36.890Z,6.73
2023-01-12T13:51:14.489Z,6.70
2023-01-12T13:53:44.375Z,6.66
2023-01-12T13:56:21.004Z,6.64
2023-01-12T13:58:52.578Z,6.56
2023-01-12T14:01:29.574Z,6.57
2023-01-12T14:04:27.168Z,6.49
2023-01-12T14:07:05.989Z,6.47
2023-01-12T14:09:46.380Z,6.46
2023-01-12T14:12:38.976Z,6.45
2023-01-12T14:15:47.704Z,6.43
2023-01-12T14:18:17.863Z,6.44
2023-01-12T14:20:48.304Z,6.42
2023-01-12T14:23:20.230Z,6.44
2023-01-12T14:26:14.835Z,6.42
2023-01-12T14:28:45.000Z,6.40
2023-01-12T14:31:24.922Z,6.35
2023-01-12T14:33:56.435Z,6.31
2023-01-12T14:36:29.044Z,6.29
2023-01-12T14:39:04.238Z,6.29
2023-01-12T14:41:52.348Z,6.22
2023-01-12T14:44:41.658Z,6.20
2023-01-12T14:47:11.049Z,6.11
2023-01-12T14:49:40.390Z,6.10
2023-01-12T14:52:27.377Z,6.06
2023-01-12T14:54:58.041Z,6.00
2023-01-12T14:57:35.427Z,5.98
2023-01-12T15:00:23.727Z,5.90
2023-01-12T15:03:14.473Z,5.91
2023-01-12T15:05:45.083Z,5.85
2023-01-12T15:08:27.169Z,5.87
2023-01-12T15:11:03.793Z,5.81
2023-01-12T15:13:35.847Z,5.83
2023-01-12T15:16:29.995Z,5.81
2023-01-12T15:19:31.778Z,5.80
2023-01-12T15:22:20.390Z,5.77
2023-01-12T15:25:06.450Z,5.78
2023-01-12T15:27:35.430Z,5.77
2023-01-12T15:30:08.579Z,5.76
2023-01-12T15:32:48.842Z,5.73
2023-01-12T15:35:22.316Z,5.70
2023-01-12T15:37:56.269Z,5.63
2023-01-12T15:40:27.841Z,5.68
2023-01-12T15:42:59.261Z,5.62
2023-01-12T15:45:36.026Z,5.64
2023-01-12T15:48:07.565Z,5.65
2023-01-12T15:50:39.881Z,5.69
2023-01-12T15:53:14.308Z,5.69
2023-01-12T15:55:42.965Z,5.73
2023-01-12T15:58:11.542Z,5.71
2023-01-12T16:00:41.993Z,5.74
2023-01-12T16:03:38.301Z,5.72
2023-01-12T16:06:03.415Z,5.75
2023-01-12T16:08:32.161Z,5.73
2023-01-12T16:11:15.612Z,5.76
2023-01-12T16:13:44.089Z,5.69
2023-01-12T16:16:17.338Z,5.69
2023-01-12T16:18:46.375Z,5.69
2023-01-12T16:21:17.247Z,5.64
2023-01-12T16:23:46.232Z,5.63
2023-01-12T16:26:14.945Z,5.65
2023-01-12T16:28:43.948Z,5.64
2023-01-12T16:31:16.163Z,5.65
2023-01-12T16:33:45.617Z,5.60
2023-01-12T16:36:20.747Z,5.63
2023-01-12T16:38:49.344Z,5.63
2023-01-12T16:41:23.156Z,5.59
2023-01-12T16:43:54.344Z,5.63
2023-01-12T16:46:25.740Z,5.59
2023-01-12T16:48:55.510Z,5.62
2023-01-12T16:51:24.707Z,5.62
2023-01-12T16:53:57.593Z,5.57
2023-01-12T16:56:26.238Z,5.56
2023-01-12T16:59:00.593Z,5.49
2023-01-12T17:01:31.319Z,5.46
2023-01-12T17:03:59.936Z,5.45
2023-01-12T17:06:30.542Z,5.44
2023-01-12T17:09:04.386Z,5.42
2023-01-12T17:11:34.057Z,5.44
2023-01-12T17:14:23.189Z,5.41
2023-01-12T17:17:06.188Z,5.35
2023-01-12T17:19:38.422Z,5.33
2023-01-12T17:22:10.152Z,5.27
2023-01-12T17:24:41.335Z,5.24
2023-01-12T17:27:20.540Z,5.22
2023-01-12T17:29:49.585Z,5.17
2023-01-12T17:32:22.210Z,5.09
2023-01-12T17:34:50.739Z,5.06
2023-01-12T17:37:19.107Z,5.07
2023-01-12T17:39:48.849Z,5.10
2023-01-12T17:42:37.451Z,5.12
2023-01-12T17:45:09.760Z,5.16
2023-01-12T17:47:40.417Z,5.18
2023-01-12T17:50:09.973Z,5.22
2023-01-12T17:52:57.035Z,5.28
2023-01-12T17:55:25.416Z,5.32
2023-01-12T17:57:56.848Z,5.36
2023-01-12T18:00:25.633Z,5.35
2023-01-12T18:02:55.770Z,5.40
2023-01-12T18:05:28.001Z,5.43
2023-01-12T18:08:00.116Z,5.43
2023-01-12T18:10:30.260Z,5.41
2023-01-12T18:13:00.270Z,5.44
2023-01-12T18:15:30.600Z,5.45
2023-01-12T18:18:04.180Z,5.43
2023-01-12T18:20:32.830Z,5.45
2023-01-12T18:23:02.230Z,5.44
2023-01-12T18:25:30.555Z,5.47
2023-01-12T18:28:01.478Z,5.50
2023-01-12T18:30:29.882Z,5.48
2023-01-12T18:33:00.541Z,5.42
2023-01-12T18:35:29.154Z,5.44
2023-01-12T18:37:59.073Z,5.48
2023-01-12T18:40:29.962Z,5.48
2023-01-12T18:42:57.915Z,5.49
2023-01-12T18:45:26.746Z,5.54
2023-01-12T18:48:16.812Z,5.56
2023-01-12T18:51:02.824Z,5.56
2023-01-12T18:53:33.350Z,5.55
2023-01-12T18:56:05.413Z,5.52
2023-01-12T18:58:36.492Z,5.48
2023-01-12T19:01:06.648Z,5.49
2023-01-12T19:03:43.334Z,5.52
2023-01-12T19:06:22.898Z,5.50
2023-01-12T19:09:09.974Z,5.52
2023-01-12T19:11:46.225Z,5.56
2023-01-12T19:14:33.355Z,5.51
2023-01-12T19:17:19.024Z,5.55
2023-01-12T19:19:49.343Z,5.51
2023-01-12T19:22:35.122Z,5.49
2023-01-12T19:25:20.928Z,5.54
2023-01-12T19:28:09.779Z,5.55
2023-01-12T19:30:38.179Z,5.59
2023-01-12T19:33:07.195Z,5.58
2023-01-12T19:35:38.020Z,5.58
2023-01-12T19:38:06.804Z,5.63
2023-01-12T19:40:45.532Z,5.62
2023-01-12T19:43:27.397Z,5.64
2023-01-12T19:45:59.226Z,5.62
2023-01-12T19:48:29.460Z,5.62
2023-01-12T19:51:10.580Z,5.66
2023-01-12T19:53:42.759Z,5.67
2023-01-12T19:56:11.837Z,5.69
2023-01-12T19:58:55.302Z,5.70
2023-01-12T20:01:24.734Z,5.68
2023-01-12T20:03:53.705Z,5.68
2023-01-12T20:06:24.952Z,5.74
2023-01-12T20:08:54.890Z,5.73
2023-01-12T20:11:23.413Z,5.72
2023-01-12T20:13:54.276Z,5.69
2023-01-12T20:16:22.683Z,5.65
2023-01-12T20:18:51.225Z,5.60
2023-01-12T20:21:25.631Z,5.62
2023-01-12T20:23:57.093Z,5.60
2023-01-12T20:26:25.461Z,5.60
2023-01-12T20:28:54.000Z,5.53
2023-01-12T20:31:23.884Z,5.47
2023-01-12T20:33:54.058Z,5.45
2023-01-12T20:36:22.899Z,5.41
2023-01-12T20:38:51.967Z,5.36
2023-01-12T20:41:22.786Z,5.26
2023-01-12T20:43:52.747Z,5.19
2023-01-12T20:46:21.295Z,5.07
2023-01-12T20:48:49.858Z,4.97
2023-01-12T20:51:18.813Z,4.85
2023-01-12T20:53:48.471Z,4.75
2023-01-12T20:56:17.092Z,4.59
2023-01-12T20:58:47.132Z,4.51
2023-01-12T21:01:17.086Z,4.43
2023-01-12T21:03:45.671Z,4.40
2023-01-12T21:06:15.844Z,4.37
2023-01-12T21:08:45.206Z,4.32
2023-01-12T21:11:15.832Z,4.28
2023-01-12T21:13:44.477Z,4.27
2023-01-12T21:16:18.352Z,4.26
2023-01-12T21:18:49.192Z,4.25
2023-01-12T21:21:17.367Z,4.23
2023-01-12T21:23:45.787Z,4.20
2023-01-12T21:26:16.231Z,4.18
2023-01-12T21:28:44.673Z,4.18
2023-01-12T21:31:19.429Z,4.15
2023-01-12T21:33:47.992Z,4.09
2023-01-12T21:36:18.388Z,4.05
2023-01-12T21:38:51.505Z,4.01
2023-01-12T21:41:30.117Z,3.98
2023-01-12T21:43:58.890Z,3.96
2023-01-12T21:46:31.639Z,3.96
2023-01-12T21:49:01.782Z,3.93
2023-01-12T21:51:36.004Z,3.98
2023-01-12T21:54:04.485Z,3.97
2023-01-12T21:56:32.963Z,3.88
2023-01-12T21:59:01.481Z,3.89
2023-01-12T22:01:34.397Z,3.86
2023-01-12T22:04:03.242Z,3.80
2023-01-12T22:06:31.898Z,3.78
2023-01-12T22:09:00.343Z,3.78
2023-01-12T22:11:28.812Z,3.80
2023-01-12T22:13:59.146Z,3.83
2023-01-12T22:16:27.677Z,3.86
2023-01-12T22:18:59.861Z,3.85
2023-01-12T22:21:28.474Z,3.92
2023-01-12T22:23:56.887Z,3.97
2023-01-12T22:26:27.752Z,4.02
2023-01-12T22:28:56.578Z,4.05
2023-01-12T22:31:25.938Z,4.11
2023-01-12T22:33:59.075Z,4.16
2023-01-12T22:36:27.446Z,4.20
2023-01-12T22:38:56.235Z,4.24
2023-01-12T22:41:26.975Z,4.29
2023-01-12T22:43:55.932Z,4.32
2023-01-12T22:46:26.048Z,4.37
2023-01-12T22:48:57.610Z,4.42
2023-01-12T22:51:28.538Z,4.48
2023-01-12T22:53:57.731Z,4.52
2023-01-12T22:56:26.534Z,4.60
2023-01-12T22:58:57.328Z,4.64
2023-01-12T23:01:27.157Z,4.66
2023-01-12T23:03:58.576Z,4.73
2023-01-12T23:06:28.054Z,4.74
2023-01-12T23:08:56.420Z,4.80
2023-01-12T23:11:26.426Z,4.83
2023-01-12T23:13:55.614Z,4.83
2023-01-12T23:16:24.626Z,4.86
2023-01-12T23:18:55.463Z,4.90
2023-01-12T23:21:27.465Z,4.93
2023-01-12T23:23:57.756Z,4.92
2023-01-12T23:26:28.096Z,4.90
2023-01-12T23:29:00.427Z,4.93
2023-01-12T23:31:31.285Z,4.92
2023-01-12T23:34:00.171Z,4.93
2023-01-12T23:36:31.184Z,4.91
2023-01-12T23:39:01.346Z,4.91
2023-01-12T23:41:32.945Z,4.92
2023-01-12T23:44:02.382Z,4.92
2023-01-12T23:46:34.516Z,4.88
2023-01-12T23:49:05.211Z,4.89
2023-01-12T23:51:36.421Z,4.81
2023-01-12T23:54:05.567Z,4.82
2023-01-12T23:56:35.350Z,4.81
2023-01-12T23:59:03.992Z,4.83
